Time;durP1;ratioP1;P1;durP2;ratioP2;P2;SDS_P1;SDS_P2;PMS_P1;PMS_P2;Temp;Humidity;BMP_temperature;BMP_pressure;BME280_temperature;BME280_humidity;BME280_pressure;Samples;Min_cycle;Max_cycle;Signal;HPM_P1;HPM_P2
2022/07/04 00:04:10;;;;;;;6.30;2.20;;;;;;;;;;21184597;28;20127;-60
2022/07/04 00:14:13;;;;;;;7.22;2.88;;;;;;;;;;21179468;28;20406;-61
2022/07/04 00:24:14;;;;;;;8.57;2.88;;;;;;;;;;21178904;28;20054;-59
2022/07/04 00:34:16;;;;;;;9.00;2.95;;;;;;;;;;21174674;28;20514;-58
2022/07/04 00:44:18;;;;;;;10.43;3.10;;;;;;;;;;21171611;28;20079;-60
2022/07/04 00:54:21;;;;;;;10.93;5.28;;;;;;;;;;21170436;28;20130;-59
2022/07/04 01:04:24;;;;;;;9.85;3.53;;;;;;;;;;21169197;28;20139;-61
2022/07/04 01:14:26;;;;;;;7.05;2.97;;;;;;;;;;21168883;28;20427;-59
2022/07/04 01:24:29;;;;;;;7.22;3.10;;;;;;;;;;21168449;28;20059;-59
2022/07/04 01:34:33;;;;;;;10.05;2.80;;;;;;;;;;21167347;28;20503;-59
2022/07/04 01:44:36;;;;;;;7.63;2.65;;;;;;;;;;21166424;28;20048;-60
2022/07/04 01:54:38;;;;;;;8.63;2.92;;;;;;;;;;21166301;28;20043;-59
2022/07/04 02:04:40;;;;;;;8.30;2.67;;;;;;;;;;21165003;28;20044;-59
2022/07/04 02:14:43;;;;;;;9.57;3.05;;;;;;;;;;21164703;28;20535;-59
2022/07/04 02:24:51;;;;;;;9.50;3.08;;;;;;;;;;21163844;28;20048;-61
2022/07/04 02:34:58;;;;;;;7.13;3.28;;;;;;;;;;21163211;28;20043;-60
2022/07/04 02:45:02;;;;;;;7.50;2.78;;;;;;;;;;21162623;28;20491;-59
2022/07/04 02:55:05;;;;;;;10.07;2.30;;;;;;;;;;21162525;28;20043;-60
2022/07/04 03:05:08;;;;;;;6.72;2.80;;;;;;;;;;21162325;28;20060;-60
2022/07/04 03:15:12;;;;;;;6.28;2.85;;;;;;;;;;21161809;28;20219;-60
2022/07/04 03:25:15;;;;;;;6.30;2.58;;;;;;;;;;21161353;28;20051;-60
2022/07/04 03:35:17;;;;;;;8.50;2.40;;;;;;;;;;21171211;28;20407;-61
2022/07/04 03:45:20;;;;;;;5.78;2.00;;;;;;;;;;21158850;28;20135;-62
2022/07/04 03:55:23;;;;;;;8.15;2.58;;;;;;;;;;21175373;28;20360;-60
2022/07/04 04:05:30;;;;;;;7.78;2.80;;;;;;;;;;21174215;28;20095;-60
2022/07/04 04:15:32;;;;;;;5.63;2.72;;;;;;;;;;21175476;28;20071;-58
2022/07/04 04:25:33;;;;;;;7.97;3.10;;;;;;;;;;21177602;28;20545;-58
2022/07/04 04:35:35;;;;;;;9.13;2.65;;;;;;;;;;21172798;28;20044;-57
2022/07/04 04:45:37;;;;;;;6.28;2.80;;;;;;;;;;21154488;28;20051;-57
2022/07/04 04:55:39;;;;;;;9.93;3.08;;;;;;;;;;21171582;28;20398;-59
2022/07/04 05:05:41;;;;;;;7.40;2.50;;;;;;;;;;21169957;28;20495;-59
2022/07/04 05:15:43;;;;;;;8.73;2.67;;;;;;;;;;21168816;28;20090;-59
2022/07/04 05:25:45;;;;;;;7.65;2.33;;;;;;;;;;21168439;28;20108;-58
2022/07/04 05:35:48;;;;;;;9.20;2.85;;;;;;;;;;21168373;28;20397;-58
2022/07/04 05:45:50;;;;;;;8.55;2.65;;;;;;;;;;21166337;28;20135;-58
2022/07/04 05:55:53;;;;;;;9.07;2.95;;;;;;;;;;21166557;28;20301;-57
2022/07/04 06:05:55;;;;;;;5.28;2.40;;;;;;;;;;21164809;28;20047;-58
2022/07/04 06:15:57;;;;;;;9.82;2.60;;;;;;;;;;21164495;28;20118;-58
2022/07/04 06:26:00;;;;;;;6.22;2.10;;;;;;;;;;21163413;28;20384;-58
2022/07/04 06:36:02;;;;;;;6.78;2.38;;;;;;;;;;21163165;28;20479;-58
2022/07/04 06:46:03;;;;;;;7.75;2.35;;;;;;;;;;21162494;28;20059;-59
2022/07/04 06:56:06;;;;;;;21.13;2.60;;;;;;;;;;21162260;28;20047;-58
2022/07/04 07:06:08;;;;;;;6.60;2.63;;;;;;;;;;21165240;28;20159;-60
2022/07/04 07:16:10;;;;;;;8.95;2.42;;;;;;;;;;21178008;28;20044;-59
2022/07/04 07:26:13;;;;;;;9.38;2.33;;;;;;;;;;21178158;28;20453;-59
2022/07/04 07:36:15;;;;;;;4.47;2.38;;;;;;;;;;21176572;28;20070;-59
2022/07/04 07:46:18;;;;;;;9.95;2.67;;;;;;;;;;21175250;28;20053;-59
2022/07/04 07:56:20;;;;;;;6.97;2.22;;;;;;;;;;21175393;28;20047;-59
2022/07/04 08:06:22;;;;;;;5.55;2.03;;;;;;;;;;21173800;28;20056;-59
2022/07/04 08:16:24;;;;;;;3.88;1.85;;;;;;;;;;21172400;28;20075;-60
2022/07/04 08:26:26;;;;;;;6.55;1.92;;;;;;;;;;21174293;28;20051;-61
2022/07/04 08:36:28;;;;;;;7.78;2.72;;;;;;;;;;21171884;28;20091;-59
2022/07/04 08:46:31;;;;;;;8.55;2.63;;;;;;;;;;21170995;28;20048;-60
2022/07/04 09:06:54;;;;;;;6.88;2.22;;;;;;;;;;21169097;28;20150;-60
2022/07/04 09:16:56;;;;;;;7.25;2.10;;;;;;;;;;21169095;28;20079;-60
2022/07/04 09:26:58;;;;;;;7.32;2.70;;;;;;;;;;21168719;28;20051;-59
2022/07/04 09:37:01;;;;;;;16.98;2.80;;;;;;;;;;21166027;28;20047;-60
2022/07/04 09:47:22;;;;;;;5.68;2.17;;;;;;;;;;21166128;28;20057;-60
2022/07/04 09:57:24;;;;;;;8.20;2.70;;;;;;;;;;21166285;28;20043;-60
2022/07/04 10:07:47;;;;;;;5.35;2.42;;;;;;;;;;21164915;28;20047;-59
2022/07/04 10:17:49;;;;;;;8.23;2.85;;;;;;;;;;21164592;28;20054;-58
2022/07/04 10:27:51;;;;;;;6.93;2.13;;;;;;;;;;21163295;28;20093;-60
2022/07/04 10:38:01;;;;;;;7.18;2.05;;;;;;;;;;21160375;28;20052;-56
2022/07/04 10:48:03;;;;;;;7.40;2.40;;;;;;;;;;21162911;28;20126;-61
2022/07/04 10:58:05;;;;;;;6.05;2.30;;;;;;;;;;21162008;28;20079;-61
2022/07/04 11:08:07;;;;;;;4.72;1.98;;;;;;;;;;21183278;28;20044;-61
2022/07/04 11:18:09;;;;;;;7.10;2.70;;;;;;;;;;21185259;28;20492;-61
2022/07/04 11:28:39;;;;;;;9.60;2.67;;;;;;;;;;21204034;28;20074;-61
2022/07/04 11:39:00;;;;;;;5.53;2.15;;;;;;;;;;21243235;28;20047;-61
2022/07/04 11:49:09;;;;;;;2.70;1.65;;;;;;;;;;21226785;28;20047;-61
2022/07/04 11:59:12;;;;;;;8.18;1.75;;;;;;;;;;21259168;27;20047;-61
2022/07/04 12:09:16;;;;;;;3.95;1.85;;;;;;;;;;21259079;27;20066;-62
2022/07/04 12:19:18;;;;;;;3.17;1.45;;;;;;;;;;21259048;27;20047;-62
2022/07/04 12:29:21;;;;;;;5.80;1.90;;;;;;;;;;21257864;27;20051;-62
2022/07/04 12:39:33;;;;;;;4.30;1.80;;;;;;;;;;21257034;27;20047;-63
2022/07/04 12:49:36;;;;;;;3.10;1.30;;;;;;;;;;21255397;27;20156;-61
2022/07/04 12:59:38;;;;;;;4.32;1.58;;;;;;;;;;21255845;27;20043;-61
2022/07/04 13:09:41;;;;;;;3.25;1.60;;;;;;;;;;21254995;27;20093;-62
2022/07/04 13:19:43;;;;;;;3.03;1.33;;;;;;;;;;21253310;27;20054;-61
2022/07/04 13:29:45;;;;;;;4.68;1.65;;;;;;;;;;21252460;27;20043;-61
2022/07/04 13:39:48;;;;;;;3.65;1.52;;;;;;;;;;21251674;27;20130;-62
2022/07/04 13:49:50;;;;;;;4.53;1.77;;;;;;;;;;21250579;27;20070;-62
2022/07/04 13:59:52;;;;;;;4.20;1.45;;;;;;;;;;21250536;27;20130;-62
2022/07/04 14:09:54;;;;;;;5.25;1.60;;;;;;;;;;21248808;27;20059;-61
2022/07/04 14:19:56;;;;;;;2.83;1.40;;;;;;;;;;21243084;27;20084;-61
2022/07/04 14:29:59;;;;;;;5.25;1.55;;;;;;;;;;21163934;28;20414;-63
2022/07/04 14:40:01;;;;;;;3.97;1.30;;;;;;;;;;21164772;28;20043;-60
2022/07/04 14:50:03;;;;;;;3.85;1.42;;;;;;;;;;21168586;28;20086;-60
2022/07/04 15:00:06;;;;;;;3.88;1.40;;;;;;;;;;21173958;28;20050;-61
2022/07/04 15:10:08;;;;;;;3.88;2.03;;;;;;;;;;21163603;28;20052;-57
2022/07/04 15:30:31;;;;;;;8.73;3.17;;;;;;;;;;21169472;28;20060;-60
2022/07/04 15:40:34;;;;;;;4.82;1.45;;;;;;;;;;21149082;27;20050;-58
2022/07/04 15:50:35;;;;;;;3.83;1.35;;;;;;;;;;21149052;27;20055;-61
2022/07/04 16:00:37;;;;;;;7.28;2.22;;;;;;;;;;21163460;27;20044;-63
2022/07/04 16:10:39;;;;;;;3.72;1.88;;;;;;;;;;21089805;28;20044;-59
2022/07/04 16:20:42;;;;;;;5.68;1.65;;;;;;;;;;21089832;28;20087;-71
2022/07/04 16:30:44;;;;;;;3.33;1.48;;;;;;;;;;21089063;28;20048;-60
2022/07/04 16:40:46;;;;;;;3.33;2.20;;;;;;;;;;21142225;28;20050;-57
2022/07/04 16:50:48;;;;;;;5.80;2.17;;;;;;;;;;21174625;27;20132;-57
2022/07/04 17:00:50;;;;;;;5.38;2.20;;;;;;;;;;21186002;27;20050;-57
2022/07/04 17:10:52;;;;;;;2.40;1.42;;;;;;;;;;21208848;27;20127;-61
2022/07/04 17:20:55;;;;;;;5.55;1.90;;;;;;;;;;21167472;28;20054;-55
2022/07/04 17:30:57;;;;;;;4.35;1.60;;;;;;;;;;21194301;27;20043;-57
2022/07/04 17:51:20;;;;;;;8.52;2.30;;;;;;;;;;21234813;27;20380;-58
2022/07/04 18:01:22;;;;;;;3.25;1.77;;;;;;;;;;21212235;27;20046;-55
2022/07/04 18:11:24;;;;;;;3.42;2.20;;;;;;;;;;21199536;27;20043;-57
2022/07/04 18:21:26;;;;;;;13.90;7.85;;;;;;;;;;21185037;27;20043;-62
2022/07/04 18:31:29;;;;;;;2.83;1.88;;;;;;;;;;21247239;27;20103;-58
2022/07/04 18:51:52;;;;;;;344.30;306.80;;;;;;;;;;21172006;27;20100;-58
2022/07/04 19:01:54;;;;;;;5.25;3.97;;;;;;;;;;21187752;27;20097;-60
2022/07/04 19:11:56;;;;;;;7.15;2.58;;;;;;;;;;21162199;28;20047;-63
2022/07/04 19:21:58;;;;;;;5.20;2.33;;;;;;;;;;21155749;27;20047;-61
2022/07/04 19:32:00;;;;;;;11.70;5.10;;;;;;;;;;21201553;27;20079;-62
2022/07/04 19:42:02;;;;;;;5.25;3.75;;;;;;;;;;21175907;28;20040;-60
2022/07/04 20:02:25;;;;;;;7.70;4.55;;;;;;;;;;21164715;28;20096;-63
2022/07/04 20:12:27;;;;;;;11.07;6.18;;;;;;;;;;21172851;27;20051;-62
2022/07/04 20:22:29;;;;;;;13.45;6.43;;;;;;;;;;21169330;27;20056;-58
2022/07/04 20:32:32;;;;;;;40.65;12.90;;;;;;;;;;21181251;27;20055;-67
2022/07/04 20:42:35;;;;;;;4.88;2.83;;;;;;;;;;21224682;27;20134;-63
2022/07/04 20:52:37;;;;;;;21.92;12.93;;;;;;;;;;21257095;27;20070;-63
2022/07/04 21:02:39;;;;;;;4.60;2.63;;;;;;;;;;21258051;27;20161;-62
2022/07/04 21:12:42;;;;;;;14.35;3.20;;;;;;;;;;21257045;27;20054;-62
2022/07/04 21:22:44;;;;;;;8.05;3.40;;;;;;;;;;21254219;27;20126;-62
2022/07/04 21:32:46;;;;;;;8.88;3.40;;;;;;;;;;21253115;27;20138;-64
2022/07/04 21:42:49;;;;;;;8.27;4.65;;;;;;;;;;21253211;27;20122;-62
2022/07/04 21:52:51;;;;;;;19.52;14.73;;;;;;;;;;21251510;27;20124;-65
2022/07/04 22:02:53;;;;;;;6.00;3.95;;;;;;;;;;21242771;27;20406;-62
2022/07/04 22:12:55;;;;;;;7.57;3.70;;;;;;;;;;21250371;27;20050;-62
2022/07/04 22:22:57;;;;;;;7.38;3.35;;;;;;;;;;21250517;27;20054;-62
2022/07/04 22:32:59;;;;;;;10.60;2.97;;;;;;;;;;21249301;27;20055;-62
2022/07/04 22:43:01;;;;;;;6.78;2.90;;;;;;;;;;21247394;27;20047;-62
2022/07/04 22:54:50;;;;;;;6.90;3.03;;;;;;;;;;21248114;27;20047;-62
2022/07/04 23:03:25;;;;;;;7.53;3.30;;;;;;;;;;21247206;28;20047;-62
2022/07/04 23:13:27;;;;;;;7.25;2.58;;;;;;;;;;21247585;28;20058;-61
2022/07/04 23:23:30;;;;;;;5.78;3.17;;;;;;;;;;21248303;28;20501;-63
2022/07/04 23:33:32;;;;;;;6.22;2.80;;;;;;;;;;21246704;28;20405;-62
2022/07/04 23:43:38;;;;;;;4.65;2.80;;;;;;;;;;21246597;28;20176;-61
2022/07/04 23:53:40;;;;;;;;;;;;;;;;;;21258748;27;20047;-62
